Portada
METAR-TAF:

METAR-TAF

Aeroports :

Vamdrup

Kolding, Dinamarca

latitud: 55-26N, longitud: 009-20E, altitud: 44 m

Observació

L'informe es va fer fa 30 minuts, a les 09:50 UTC
Vent 9 kt del Est
Temperatura 16°C
Humitat 77%
Pressió 1013 hPa
Visibilitat 10 km o més
sense núvols per sota de 1500 mi sense presència de cumulonimbus.

METAR: EKVD 050950Z 10009KT CAVOK 16/12 Q1013

Hora: 12:20 (10:20 UTC)

Pronòstic

L'informe es va fer fa 1 hora i 26 minuts, a les 08:54 UTC
Pronòstic vàlid del 05 a les 09 UTC al 05 a les 16 UTC
Vent 8 kt del Est/Sud-Est
Visibilitat 10 km o més
Cel ennuvolat a una alçada de 4500 ft
Temporalment
l' 05 a les 09 UTC al 05 a les 13 UTC
Núvols disperses a una alçada de 3000 ft, Cumulonimbus.
xàfecs de pluja

TAF: EKVD 050854Z 0509/0516 11008KT 9999 BKN045 TEMPO 0509/0513 SHRA SCT030CB

Observacions i pronòstics meteorològics de més de 4000 aeroports (METAR i TAF).

Les estacions disponibles són els punts grocs i vermells al mapa.

Posi el ratolí al punt desitjat per veure el nom de l'estació.

Feu clic per veure les observacions i els pronòstics meteorològics.

Per canviar el mapa: feu clic els botons verds amb una creu de color negre per apropar; al botó verd amb un guió per allunyar la imatge; o en les fletxes verdes per a mapes adjacents.


METAR-TAF: